Aviation Digital Data Service (ADDS)

Output produced by METARs form (0043 UTC 17 January 2017)
found at http://aviationweather.gov/adds/metars/
 
KSWF 162340Z 1700/1806 VRB02KT P6SM BKN120 
     FM170800 00000KT P6SM SCT015 OVC040 
     FM171300 00000KT 5SM -FZRA BKN010 OVC030 
     FM171600 VRB04KT 2SM -RA BR BKN007 OVC010 
     FM180000 VRB04KT 1SM -RA BR OVC005 AMD NOT SKED